sensor_id;sensor_type;location;lat;lon;timestamp;P1;durP1;ratioP1;P2;durP2;ratioP2
29044;SDS011;16133;49.486;12.176;2023-05-10T00:02:22;5.13;;;3.40;;
29044;SDS011;16133;49.486;12.176;2023-05-10T00:04:48;6.32;;;3.63;;
29044;SDS011;16133;49.486;12.176;2023-05-10T00:07:13;4.90;;;3.20;;
29044;SDS011;16133;49.486;12.176;2023-05-10T00:09:38;5.20;;;3.50;;
29044;SDS011;16133;49.486;12.176;2023-05-10T00:12:05;4.88;;;2.97;;
29044;SDS011;16133;49.486;12.176;2023-05-10T00:14:30;5.50;;;3.67;;
29044;SDS011;16133;49.486;12.176;2023-05-10T00:16:55;8.32;;;4.22;;
29044;SDS011;16133;49.486;12.176;2023-05-10T00:19:21;4.47;;;3.40;;
29044;SDS011;16133;49.486;12.176;2023-05-10T00:21:46;8.23;;;3.60;;
29044;SDS011;16133;49.486;12.176;2023-05-10T00:24:12;6.13;;;3.65;;
29044;SDS011;16133;49.486;12.176;2023-05-10T00:26:37;4.35;;;3.28;;
29044;SDS011;16133;49.486;12.176;2023-05-10T00:29:02;4.82;;;3.50;;
29044;SDS011;16133;49.486;12.176;2023-05-10T00:31:28;4.95;;;3.63;;
29044;SDS011;16133;49.486;12.176;2023-05-10T00:33:53;6.72;;;3.78;;
29044;SDS011;16133;49.486;12.176;2023-05-10T00:36:19;4.65;;;3.58;;
29044;SDS011;16133;49.486;12.176;2023-05-10T00:38:45;4.75;;;3.10;;
29044;SDS011;16133;49.486;12.176;2023-05-10T00:41:11;6.63;;;3.47;;
29044;SDS011;16133;49.486;12.176;2023-05-10T00:43:36;6.13;;;3.25;;
29044;SDS011;16133;49.486;12.176;2023-05-10T00:46:01;6.38;;;2.85;;
29044;SDS011;16133;49.486;12.176;2023-05-10T00:48:28;6.70;;;3.55;;
29044;SDS011;16133;49.486;12.176;2023-05-10T00:50:54;4.05;;;2.83;;
29044;SDS011;16133;49.486;12.176;2023-05-10T00:53:19;5.50;;;3.45;;
29044;SDS011;16133;49.486;12.176;2023-05-10T00:55:45;5.60;;;3.05;;
29044;SDS011;16133;49.486;12.176;2023-05-10T00:58:10;6.57;;;3.40;;
29044;SDS011;16133;49.486;12.176;2023-05-10T01:00:37;4.78;;;3.10;;
29044;SDS011;16133;49.486;12.176;2023-05-10T01:03:03;5.00;;;3.20;;
29044;SDS011;16133;49.486;12.176;2023-05-10T01:05:28;4.55;;;2.85;;
29044;SDS011;16133;49.486;12.176;2023-05-10T01:07:54;5.10;;;3.08;;
29044;SDS011;16133;49.486;12.176;2023-05-10T01:10:19;4.55;;;3.38;;
29044;SDS011;16133;49.486;12.176;2023-05-10T01:12:45;4.53;;;2.95;;
29044;SDS011;16133;49.486;12.176;2023-05-10T01:15:12;5.07;;;3.35;;
29044;SDS011;16133;49.486;12.176;2023-05-10T01:17:39;5.40;;;3.65;;
29044;SDS011;16133;49.486;12.176;2023-05-10T01:20:07;6.07;;;3.58;;
29044;SDS011;16133;49.486;12.176;2023-05-10T01:26:04;8.05;;;5.30;;
29044;SDS011;16133;49.486;12.176;2023-05-10T01:36:43;7.00;;;3.97;;
29044;SDS011;16133;49.486;12.176;2023-05-10T01:42:32;6.60;;;4.35;;
29044;SDS011;16133;49.486;12.176;2023-05-10T01:45:19;5.55;;;3.38;;
29044;SDS011;16133;49.486;12.176;2023-05-10T01:48:05;8.15;;;4.07;;
29044;SDS011;16133;49.486;12.176;2023-05-10T01:50:31;6.88;;;3.72;;
29044;SDS011;16133;49.486;12.176;2023-05-10T01:53:00;5.10;;;3.65;;
29044;SDS011;16133;49.486;12.176;2023-05-10T01:55:29;4.95;;;3.25;;
29044;SDS011;16133;49.486;12.176;2023-05-10T01:58:02;7.70;;;3.40;;
29044;SDS011;16133;49.486;12.176;2023-05-10T02:00:31;6.05;;;3.45;;
29044;SDS011;16133;49.486;12.176;2023-05-10T02:02:58;6.78;;;3.10;;
29044;SDS011;16133;49.486;12.176;2023-05-10T02:05:27;5.10;;;3.47;;
29044;SDS011;16133;49.486;12.176;2023-05-10T02:07:55;6.18;;;3.63;;
29044;SDS011;16133;49.486;12.176;2023-05-10T02:10:21;5.57;;;3.80;;
29044;SDS011;16133;49.486;12.176;2023-05-10T02:12:47;5.80;;;3.85;;
29044;SDS011;16133;49.486;12.176;2023-05-10T02:15:15;6.38;;;3.85;;
29044;SDS011;16133;49.486;12.176;2023-05-10T02:17:49;7.47;;;3.55;;
29044;SDS011;16133;49.486;12.176;2023-05-10T02:20:17;6.50;;;3.53;;
29044;SDS011;16133;49.486;12.176;2023-05-10T02:22:47;5.68;;;3.75;;
29044;SDS011;16133;49.486;12.176;2023-05-10T02:25:15;5.63;;;3.60;;
29044;SDS011;16133;49.486;12.176;2023-05-10T02:27:42;6.43;;;3.88;;
29044;SDS011;16133;49.486;12.176;2023-05-10T02:30:09;6.13;;;3.60;;
29044;SDS011;16133;49.486;12.176;2023-05-10T02:32:36;6.07;;;3.35;;
29044;SDS011;16133;49.486;12.176;2023-05-10T02:35:03;4.90;;;3.20;;
29044;SDS011;16133;49.486;12.176;2023-05-10T02:37:29;5.53;;;3.60;;
29044;SDS011;16133;49.486;12.176;2023-05-10T02:39:55;5.93;;;4.13;;
29044;SDS011;16133;49.486;12.176;2023-05-10T02:42:25;5.22;;;3.33;;
29044;SDS011;16133;49.486;12.176;2023-05-10T02:44:53;6.10;;;3.08;;
29044;SDS011;16133;49.486;12.176;2023-05-10T02:47:24;5.45;;;3.88;;
29044;SDS011;16133;49.486;12.176;2023-05-10T02:49:50;6.85;;;4.13;;
29044;SDS011;16133;49.486;12.176;2023-05-10T02:52:16;5.90;;;3.38;;
29044;SDS011;16133;49.486;12.176;2023-05-10T02:54:48;7.38;;;4.00;;
29044;SDS011;16133;49.486;12.176;2023-05-10T02:57:16;5.88;;;3.50;;
29044;SDS011;16133;49.486;12.176;2023-05-10T02:59:44;4.90;;;3.17;;
29044;SDS011;16133;49.486;12.176;2023-05-10T03:02:10;4.38;;;3.22;;
29044;SDS011;16133;49.486;12.176;2023-05-10T03:04:37;6.00;;;3.35;;
29044;SDS011;16133;49.486;12.176;2023-05-10T03:07:03;4.93;;;3.53;;
29044;SDS011;16133;49.486;12.176;2023-05-10T03:09:29;7.95;;;3.67;;
29044;SDS011;16133;49.486;12.176;2023-05-10T03:11:56;5.50;;;3.28;;
29044;SDS011;16133;49.486;12.176;2023-05-10T03:14:47;6.07;;;3.70;;
29044;SDS011;16133;49.486;12.176;2023-05-10T03:17:52;5.28;;;3.63;;
29044;SDS011;16133;49.486;12.176;2023-05-10T03:20:24;5.53;;;3.90;;
29044;SDS011;16133;49.486;12.176;2023-05-10T03:22:52;5.70;;;3.58;;
29044;SDS011;16133;49.486;12.176;2023-05-10T03:25:21;6.40;;;4.07;;
29044;SDS011;16133;49.486;12.176;2023-05-10T03:27:47;5.78;;;3.85;;
29044;SDS011;16133;49.486;12.176;2023-05-10T03:30:14;5.25;;;3.20;;
29044;SDS011;16133;49.486;12.176;2023-05-10T03:32:40;4.80;;;3.33;;
29044;SDS011;16133;49.486;12.176;2023-05-10T03:35:06;4.93;;;3.55;;
29044;SDS011;16133;49.486;12.176;2023-05-10T03:37:33;5.47;;;4.03;;
29044;SDS011;16133;49.486;12.176;2023-05-10T03:39:58;7.38;;;4.05;;
29044;SDS011;16133;49.486;12.176;2023-05-10T03:42:24;7.38;;;3.50;;
29044;SDS011;16133;49.486;12.176;2023-05-10T03:44:49;6.13;;;4.38;;
29044;SDS011;16133;49.486;12.176;2023-05-10T03:47:15;6.03;;;4.10;;
29044;SDS011;16133;49.486;12.176;2023-05-10T03:49:40;6.32;;;4.13;;
29044;SDS011;16133;49.486;12.176;2023-05-10T03:52:05;6.78;;;4.15;;
29044;SDS011;16133;49.486;12.176;2023-05-10T03:54:31;7.60;;;4.50;;
29044;SDS011;16133;49.486;12.176;2023-05-10T03:56:57;6.00;;;4.32;;
29044;SDS011;16133;49.486;12.176;2023-05-10T03:59:22;7.60;;;4.55;;
29044;SDS011;16133;49.486;12.176;2023-05-10T04:01:47;5.35;;;3.88;;
29044;SDS011;16133;49.486;12.176;2023-05-10T04:04:13;6.85;;;4.43;;
29044;SDS011;16133;49.486;12.176;2023-05-10T04:06:38;6.53;;;4.38;;
29044;SDS011;16133;49.486;12.176;2023-05-10T04:09:04;6.43;;;4.20;;
29044;SDS011;16133;49.486;12.176;2023-05-10T04:11:29;7.53;;;4.18;;
29044;SDS011;16133;49.486;12.176;2023-05-10T04:13:55;7.68;;;4.85;;
29044;SDS011;16133;49.486;12.176;2023-05-10T04:16:20;9.23;;;4.75;;
29044;SDS011;16133;49.486;12.176;2023-05-10T04:18:45;6.10;;;3.78;;
29044;SDS011;16133;49.486;12.176;2023-05-10T04:21:14;6.70;;;4.28;;
29044;SDS011;16133;49.486;12.176;2023-05-10T04:23:40;5.72;;;3.88;;
29044;SDS011;16133;49.486;12.176;2023-05-10T04:26:05;6.30;;;4.43;;
29044;SDS011;16133;49.486;12.176;2023-05-10T04:28:31;7.40;;;4.25;;
29044;SDS011;16133;49.486;12.176;2023-05-10T04:31:00;7.03;;;4.60;;
29044;SDS011;16133;49.486;12.176;2023-05-10T04:33:27;6.57;;;4.32;;
29044;SDS011;16133;49.486;12.176;2023-05-10T04:35:52;8.25;;;5.10;;
29044;SDS011;16133;49.486;12.176;2023-05-10T04:38:18;8.93;;;4.30;;
29044;SDS011;16133;49.486;12.176;2023-05-10T04:40:43;7.32;;;4.93;;
29044;SDS011;16133;49.486;12.176;2023-05-10T04:43:08;9.02;;;4.97;;
29044;SDS011;16133;49.486;12.176;2023-05-10T04:45:34;7.53;;;4.70;;
29044;SDS011;16133;49.486;12.176;2023-05-10T04:47:59;6.45;;;4.82;;
29044;SDS011;16133;49.486;12.176;2023-05-10T04:50:24;7.28;;;5.22;;
29044;SDS011;16133;49.486;12.176;2023-05-10T04:52:50;9.98;;;6.03;;
29044;SDS011;16133;49.486;12.176;2023-05-10T04:55:15;8.65;;;4.85;;
29044;SDS011;16133;49.486;12.176;2023-05-10T04:57:41;7.32;;;5.13;;
29044;SDS011;16133;49.486;12.176;2023-05-10T05:00:06;10.00;;;5.40;;
29044;SDS011;16133;49.486;12.176;2023-05-10T05:02:32;18.25;;;5.40;;
29044;SDS011;16133;49.486;12.176;2023-05-10T05:04:57;6.88;;;4.55;;
29044;SDS011;16133;49.486;12.176;2023-05-10T05:07:23;11.43;;;5.80;;
29044;SDS011;16133;49.486;12.176;2023-05-10T05:09:48;10.73;;;5.88;;
29044;SDS011;16133;49.486;12.176;2023-05-10T05:12:13;8.52;;;5.43;;
29044;SDS011;16133;49.486;12.176;2023-05-10T05:14:39;8.88;;;5.50;;
29044;SDS011;16133;49.486;12.176;2023-05-10T05:17:06;9.00;;;5.47;;
29044;SDS011;16133;49.486;12.176;2023-05-10T05:19:31;7.72;;;5.03;;
29044;SDS011;16133;49.486;12.176;2023-05-10T05:21:57;9.18;;;5.40;;
29044;SDS011;16133;49.486;12.176;2023-05-10T05:24:22;7.80;;;5.20;;
29044;SDS011;16133;49.486;12.176;2023-05-10T05:26:48;8.15;;;5.07;;
29044;SDS011;16133;49.486;12.176;2023-05-10T05:29:13;7.05;;;5.03;;
29044;SDS011;16133;49.486;12.176;2023-05-10T05:31:39;9.43;;;5.63;;
29044;SDS011;16133;49.486;12.176;2023-05-10T05:34:04;9.70;;;5.72;;
29044;SDS011;16133;49.486;12.176;2023-05-10T05:36:29;9.60;;;5.15;;
29044;SDS011;16133;49.486;12.176;2023-05-10T05:38:56;9.18;;;5.47;;
29044;SDS011;16133;49.486;12.176;2023-05-10T05:41:22;7.90;;;5.22;;
29044;SDS011;16133;49.486;12.176;2023-05-10T05:43:49;9.82;;;6.07;;
29044;SDS011;16133;49.486;12.176;2023-05-10T05:46:14;9.57;;;5.93;;
29044;SDS011;16133;49.486;12.176;2023-05-10T05:48:39;9.57;;;5.70;;
29044;SDS011;16133;49.486;12.176;2023-05-10T05:51:05;9.68;;;5.88;;
29044;SDS011;16133;49.486;12.176;2023-05-10T05:53:30;10.75;;;6.50;;
29044;SDS011;16133;49.486;12.176;2023-05-10T05:55:57;10.80;;;6.15;;
29044;SDS011;16133;49.486;12.176;2023-05-10T05:58:23;9.93;;;6.18;;
29044;SDS011;16133;49.486;12.176;2023-05-10T06:00:50;8.98;;;5.45;;
29044;SDS011;16133;49.486;12.176;2023-05-10T06:03:16;8.88;;;5.72;;
29044;SDS011;16133;49.486;12.176;2023-05-10T06:05:42;8.35;;;5.85;;
29044;SDS011;16133;49.486;12.176;2023-05-10T06:08:08;9.75;;;5.82;;
29044;SDS011;16133;49.486;12.176;2023-05-10T06:10:36;9.18;;;4.80;;
29044;SDS011;16133;49.486;12.176;2023-05-10T06:13:02;10.65;;;5.93;;
29044;SDS011;16133;49.486;12.176;2023-05-10T06:15:28;11.43;;;6.50;;
29044;SDS011;16133;49.486;12.176;2023-05-10T06:17:53;12.27;;;6.35;;
29044;SDS011;16133;49.486;12.176;2023-05-10T06:20:18;11.25;;;5.65;;
29044;SDS011;16133;49.486;12.176;2023-05-10T06:22:44;9.07;;;5.95;;
29044;SDS011;16133;49.486;12.176;2023-05-10T06:25:09;8.57;;;5.35;;
29044;SDS011;16133;49.486;12.176;2023-05-10T06:27:35;8.60;;;5.45;;
29044;SDS011;16133;49.486;12.176;2023-05-10T06:30:00;10.40;;;5.63;;
29044;SDS011;16133;49.486;12.176;2023-05-10T06:32:26;9.18;;;5.90;;
29044;SDS011;16133;49.486;12.176;2023-05-10T06:34:51;9.88;;;5.97;;
29044;SDS011;16133;49.486;12.176;2023-05-10T06:37:17;11.98;;;5.70;;
29044;SDS011;16133;49.486;12.176;2023-05-10T06:39:42;18.83;;;7.82;;
29044;SDS011;16133;49.486;12.176;2023-05-10T06:42:08;8.93;;;5.90;;
29044;SDS011;16133;49.486;12.176;2023-05-10T06:44:34;11.30;;;6.10;;
29044;SDS011;16133;49.486;12.176;2023-05-10T06:46:59;11.60;;;5.72;;
29044;SDS011;16133;49.486;12.176;2023-05-10T06:49:25;9.73;;;5.22;;
29044;SDS011;16133;49.486;12.176;2023-05-10T06:51:50;10.15;;;6.07;;
29044;SDS011;16133;49.486;12.176;2023-05-10T06:54:15;8.48;;;5.43;;
29044;SDS011;16133;49.486;12.176;2023-05-10T06:56:41;7.97;;;5.25;;
29044;SDS011;16133;49.486;12.176;2023-05-10T06:59:07;8.52;;;5.53;;
29044;SDS011;16133;49.486;12.176;2023-05-10T07:01:32;8.73;;;5.90;;
29044;SDS011;16133;49.486;12.176;2023-05-10T07:03:57;8.40;;;5.68;;
29044;SDS011;16133;49.486;12.176;2023-05-10T07:06:23;10.40;;;5.70;;
29044;SDS011;16133;49.486;12.176;2023-05-10T07:08:48;9.65;;;5.88;;
29044;SDS011;16133;49.486;12.176;2023-05-10T07:11:13;11.48;;;6.38;;
29044;SDS011;16133;49.486;12.176;2023-05-10T07:13:39;11.57;;;5.93;;
29044;SDS011;16133;49.486;12.176;2023-05-10T07:16:06;10.40;;;5.82;;
29044;SDS011;16133;49.486;12.176;2023-05-10T07:18:32;10.63;;;5.97;;
29044;SDS011;16133;49.486;12.176;2023-05-10T07:20:58;10.98;;;5.88;;
29044;SDS011;16133;49.486;12.176;2023-05-10T07:23:23;9.90;;;5.93;;
29044;SDS011;16133;49.486;12.176;2023-05-10T07:25:49;7.85;;;5.07;;
29044;SDS011;16133;49.486;12.176;2023-05-10T07:28:16;8.43;;;6.03;;
29044;SDS011;16133;49.486;12.176;2023-05-10T07:30:42;10.95;;;6.45;;
29044;SDS011;16133;49.486;12.176;2023-05-10T07:33:08;9.18;;;5.45;;
29044;SDS011;16133;49.486;12.176;2023-05-10T07:35:34;13.23;;;7.18;;
29044;SDS011;16133;49.486;12.176;2023-05-10T07:38:00;12.13;;;5.78;;
29044;SDS011;16133;49.486;12.176;2023-05-10T07:40:26;10.38;;;6.40;;
29044;SDS011;16133;49.486;12.176;2023-05-10T07:42:53;9.02;;;6.10;;
29044;SDS011;16133;49.486;12.176;2023-05-10T07:45:18;10.13;;;6.32;;
29044;SDS011;16133;49.486;12.176;2023-05-10T07:47:43;11.55;;;5.82;;
29044;SDS011;16133;49.486;12.176;2023-05-10T07:50:09;9.55;;;5.43;;
29044;SDS011;16133;49.486;12.176;2023-05-10T07:52:34;10.13;;;6.40;;
29044;SDS011;16133;49.486;12.176;2023-05-10T07:54:59;13.00;;;6.25;;
29044;SDS011;16133;49.486;12.176;2023-05-10T07:57:25;9.93;;;6.03;;
29044;SDS011;16133;49.486;12.176;2023-05-10T07:59:50;7.32;;;5.32;;
29044;SDS011;16133;49.486;12.176;2023-05-10T08:02:16;10.75;;;6.18;;
29044;SDS011;16133;49.486;12.176;2023-05-10T08:04:41;12.77;;;6.50;;
29044;SDS011;16133;49.486;12.176;2023-05-10T08:07:06;9.00;;;5.53;;
29044;SDS011;16133;49.486;12.176;2023-05-10T08:09:33;7.18;;;5.20;;
29044;SDS011;16133;49.486;12.176;2023-05-10T08:11:58;9.25;;;6.35;;
29044;SDS011;16133;49.486;12.176;2023-05-10T08:14:25;7.05;;;4.60;;
29044;SDS011;16133;49.486;12.176;2023-05-10T08:16:50;7.80;;;5.15;;
29044;SDS011;16133;49.486;12.176;2023-05-10T08:19:16;8.88;;;5.15;;
29044;SDS011;16133;49.486;12.176;2023-05-10T08:21:44;5.97;;;4.35;;
29044;SDS011;16133;49.486;12.176;2023-05-10T08:24:10;6.25;;;5.03;;
29044;SDS011;16133;49.486;12.176;2023-05-10T08:26:35;6.15;;;4.53;;
29044;SDS011;16133;49.486;12.176;2023-05-10T08:29:01;7.43;;;4.28;;
29044;SDS011;16133;49.486;12.176;2023-05-10T08:31:26;6.57;;;4.57;;
29044;SDS011;16133;49.486;12.176;2023-05-10T08:33:52;5.68;;;3.92;;
29044;SDS011;16133;49.486;12.176;2023-05-10T08:36:17;5.65;;;4.15;;
29044;SDS011;16133;49.486;12.176;2023-05-10T08:38:46;5.60;;;4.30;;
29044;SDS011;16133;49.486;12.176;2023-05-10T08:41:12;5.72;;;4.22;;
29044;SDS011;16133;49.486;12.176;2023-05-10T08:43:38;5.03;;;3.72;;
29044;SDS011;16133;49.486;12.176;2023-05-10T08:46:06;5.95;;;4.30;;
29044;SDS011;16133;49.486;12.176;2023-05-10T08:48:34;7.18;;;4.75;;
29044;SDS011;16133;49.486;12.176;2023-05-10T08:51:00;5.78;;;4.25;;
29044;SDS011;16133;49.486;12.176;2023-05-10T08:53:28;5.88;;;3.80;;
29044;SDS011;16133;49.486;12.176;2023-05-10T08:55:56;11.65;;;6.93;;
29044;SDS011;16133;49.486;12.176;2023-05-10T08:58:22;7.45;;;4.80;;
29044;SDS011;16133;49.486;12.176;2023-05-10T09:00:49;8.43;;;4.93;;
29044;SDS011;16133;49.486;12.176;2023-05-10T09:03:17;5.85;;;4.20;;
29044;SDS011;16133;49.486;12.176;2023-05-10T09:05:43;10.32;;;4.68;;
29044;SDS011;16133;49.486;12.176;2023-05-10T09:08:09;6.47;;;4.35;;
29044;SDS011;16133;49.486;12.176;2023-05-10T09:10:36;4.32;;;3.10;;
29044;SDS011;16133;49.486;12.176;2023-05-10T09:13:04;5.07;;;3.80;;
29044;SDS011;16133;49.486;12.176;2023-05-10T09:15:30;4.10;;;2.88;;
29044;SDS011;16133;49.486;12.176;2023-05-10T09:17:55;3.83;;;3.00;;
29044;SDS011;16133;49.486;12.176;2023-05-10T09:20:23;3.65;;;2.90;;
29044;SDS011;16133;49.486;12.176;2023-05-10T09:22:48;4.53;;;3.17;;
29044;SDS011;16133;49.486;12.176;2023-05-10T09:25:15;5.07;;;2.72;;
29044;SDS011;16133;49.486;12.176;2023-05-10T09:27:41;3.65;;;2.97;;
29044;SDS011;16133;49.486;12.176;2023-05-10T09:30:10;4.95;;;3.40;;
29044;SDS011;16133;49.486;12.176;2023-05-10T09:32:41;3.20;;;2.60;;
29044;SDS011;16133;49.486;12.176;2023-05-10T09:35:12;3.03;;;2.40;;
29044;SDS011;16133;49.486;12.176;2023-05-10T09:37:41;3.72;;;2.72;;
29044;SDS011;16133;49.486;12.176;2023-05-10T09:40:08;3.97;;;2.42;;
29044;SDS011;16133;49.486;12.176;2023-05-10T09:42:37;2.72;;;1.90;;
29044;SDS011;16133;49.486;12.176;2023-05-10T09:45:03;2.42;;;2.13;;
29044;SDS011;16133;49.486;12.176;2023-05-10T09:47:33;2.92;;;2.45;;
29044;SDS011;16133;49.486;12.176;2023-05-10T09:50:00;4.68;;;2.17;;
29044;SDS011;16133;49.486;12.176;2023-05-10T09:52:35;3.20;;;2.25;;
29044;SDS011;16133;49.486;12.176;2023-05-10T09:55:11;2.83;;;2.25;;
29044;SDS011;16133;49.486;12.176;2023-05-10T09:57:37;4.15;;;2.38;;
29044;SDS011;16133;49.486;12.176;2023-05-10T10:00:03;2.55;;;2.22;;
29044;SDS011;16133;49.486;12.176;2023-05-10T10:02:30;2.97;;;2.00;;
29044;SDS011;16133;49.486;12.176;2023-05-10T10:04:56;2.50;;;1.88;;
29044;SDS011;16133;49.486;12.176;2023-05-10T10:07:22;2.33;;;1.70;;
29044;SDS011;16133;49.486;12.176;2023-05-10T10:09:50;3.28;;;2.20;;
29044;SDS011;16133;49.486;12.176;2023-05-10T10:12:16;2.42;;;1.52;;
29044;SDS011;16133;49.486;12.176;2023-05-10T10:14:42;2.17;;;1.92;;
29044;SDS011;16133;49.486;12.176;2023-05-10T10:17:08;2.25;;;2.05;;
29044;SDS011;16133;49.486;12.176;2023-05-10T10:19:34;1.95;;;1.63;;
29044;SDS011;16133;49.486;12.176;2023-05-10T10:22:00;2.20;;;1.73;;
29044;SDS011;16133;49.486;12.176;2023-05-10T10:24:25;2.22;;;1.80;;
29044;SDS011;16133;49.486;12.176;2023-05-10T10:26:52;3.80;;;2.38;;
29044;SDS011;16133;49.486;12.176;2023-05-10T10:29:36;2.47;;;1.90;;
29044;SDS011;16133;49.486;12.176;2023-05-10T10:35:14;2.35;;;1.80;;
29044;SDS011;16133;49.486;12.176;2023-05-10T10:37:42;1.67;;;1.45;;
29044;SDS011;16133;49.486;12.176;2023-05-10T10:42:54;1.70;;;1.60;;
29044;SDS011;16133;49.486;12.176;2023-05-10T10:45:21;1.70;;;1.50;;
29044;SDS011;16133;49.486;12.176;2023-05-10T10:47:47;1.98;;;1.60;;
29044;SDS011;16133;49.486;12.176;2023-05-10T10:50:13;2.08;;;1.45;;
29044;SDS011;16133;49.486;12.176;2023-05-10T10:52:41;2.20;;;1.63;;
29044;SDS011;16133;49.486;12.176;2023-05-10T10:55:11;1.52;;;1.35;;
29044;SDS011;16133;49.486;12.176;2023-05-10T11:00:28;1.50;;;1.40;;
29044;SDS011;16133;49.486;12.176;2023-05-10T11:03:11;1.60;;;1.23;;
29044;SDS011;16133;49.486;12.176;2023-05-10T11:05:50;2.45;;;1.33;;
29044;SDS011;16133;49.486;12.176;2023-05-10T11:08:26;1.30;;;1.15;;
29044;SDS011;16133;49.486;12.176;2023-05-10T11:13:31;1.58;;;1.20;;
29044;SDS011;16133;49.486;12.176;2023-05-10T11:16:17;1.77;;;1.17;;
29044;SDS011;16133;49.486;12.176;2023-05-10T11:21:22;3.10;;;1.08;;
29044;SDS011;16133;49.486;12.176;2023-05-10T11:23:57;1.30;;;0.80;;
29044;SDS011;16133;49.486;12.176;2023-05-10T11:26:25;1.55;;;1.17;;
29044;SDS011;16133;49.486;12.176;2023-05-10T11:29:00;1.05;;;0.95;;
29044;SDS011;16133;49.486;12.176;2023-05-10T11:31:27;1.48;;;1.23;;
29044;SDS011;16133;49.486;12.176;2023-05-10T11:33:53;2.95;;;1.30;;
29044;SDS011;16133;49.486;12.176;2023-05-10T11:36:21;1.08;;;0.82;;
29044;SDS011;16133;49.486;12.176;2023-05-10T11:38:49;1.52;;;1.20;;
29044;SDS011;16133;49.486;12.176;2023-05-10T11:41:15;1.38;;;1.00;;
29044;SDS011;16133;49.486;12.176;2023-05-10T11:43:43;2.03;;;1.00;;
29044;SDS011;16133;49.486;12.176;2023-05-10T11:46:12;1.80;;;1.00;;
29044;SDS011;16133;49.486;12.176;2023-05-10T11:48:39;0.80;;;0.80;;
29044;SDS011;16133;49.486;12.176;2023-05-10T11:51:06;2.90;;;1.00;;
29044;SDS011;16133;49.486;12.176;2023-05-10T11:53:32;1.20;;;1.10;;
29044;SDS011;16133;49.486;12.176;2023-05-10T11:56:08;1.13;;;0.77;;
29044;SDS011;16133;49.486;12.176;2023-05-10T11:58:35;1.00;;;0.90;;
29044;SDS011;16133;49.486;12.176;2023-05-10T12:01:01;1.95;;;1.17;;
29044;SDS011;16133;49.486;12.176;2023-05-10T12:03:28;0.55;;;0.55;;
29044;SDS011;16133;49.486;12.176;2023-05-10T12:05:54;1.13;;;0.82;;
29044;SDS011;16133;49.486;12.176;2023-05-10T12:08:21;1.60;;;0.60;;
29044;SDS011;16133;49.486;12.176;2023-05-10T12:10:49;0.68;;;0.63;;
29044;SDS011;16133;49.486;12.176;2023-05-10T12:13:14;6.63;;;1.00;;
29044;SDS011;16133;49.486;12.176;2023-05-10T12:15:40;2.45;;;0.80;;
29044;SDS011;16133;49.486;12.176;2023-05-10T12:18:10;0.85;;;0.60;;
29044;SDS011;16133;49.486;12.176;2023-05-10T12:20:40;1.00;;;0.77;;
29044;SDS011;16133;49.486;12.176;2023-05-10T12:23:07;1.05;;;0.85;;
29044;SDS011;16133;49.486;12.176;2023-05-10T12:25:35;0.95;;;0.90;;
29044;SDS011;16133;49.486;12.176;2023-05-10T12:28:05;1.40;;;0.98;;
29044;SDS011;16133;49.486;12.176;2023-05-10T12:30:35;1.10;;;0.73;;
29044;SDS011;16133;49.486;12.176;2023-05-10T12:33:02;2.28;;;0.85;;
29044;SDS011;16133;49.486;12.176;2023-05-10T12:35:33;0.95;;;0.80;;
29044;SDS011;16133;49.486;12.176;2023-05-10T12:41:03;2.05;;;1.05;;
29044;SDS011;16133;49.486;12.176;2023-05-10T12:43:30;0.57;;;0.57;;
29044;SDS011;16133;49.486;12.176;2023-05-10T12:45:55;1.10;;;1.00;;
29044;SDS011;16133;49.486;12.176;2023-05-10T12:48:21;0.93;;;0.90;;
29044;SDS011;16133;49.486;12.176;2023-05-10T12:50:46;0.70;;;0.70;;
29044;SDS011;16133;49.486;12.176;2023-05-10T12:53:15;1.00;;;0.60;;
29044;SDS011;16133;49.486;12.176;2023-05-10T12:55:42;0.50;;;0.50;;
29044;SDS011;16133;49.486;12.176;2023-05-10T12:58:08;0.82;;;0.60;;
29044;SDS011;16133;49.486;12.176;2023-05-10T13:00:33;0.73;;;0.52;;
29044;SDS011;16133;49.486;12.176;2023-05-10T13:02:59;0.90;;;0.77;;
29044;SDS011;16133;49.486;12.176;2023-05-10T13:05:24;1.02;;;0.75;;
29044;SDS011;16133;49.486;12.176;2023-05-10T13:07:51;0.98;;;0.50;;
29044;SDS011;16133;49.486;12.176;2023-05-10T13:10:16;0.50;;;0.50;;
29044;SDS011;16133;49.486;12.176;2023-05-10T13:12:42;0.40;;;0.40;;
29044;SDS011;16133;49.486;12.176;2023-05-10T13:15:07;0.70;;;0.65;;
29044;SDS011;16133;49.486;12.176;2023-05-10T13:17:36;2.13;;;0.73;;
29044;SDS011;16133;49.486;12.176;2023-05-10T13:20:04;1.17;;;0.90;;
29044;SDS011;16133;49.486;12.176;2023-05-10T13:22:29;0.93;;;0.75;;
29044;SDS011;16133;49.486;12.176;2023-05-10T13:24:55;1.20;;;0.90;;
29044;SDS011;16133;49.486;12.176;2023-05-10T13:27:21;0.75;;;0.75;;
29044;SDS011;16133;49.486;12.176;2023-05-10T13:29:46;1.30;;;0.90;;
29044;SDS011;16133;49.486;12.176;2023-05-10T13:32:11;0.70;;;0.70;;
29044;SDS011;16133;49.486;12.176;2023-05-10T13:34:37;1.75;;;0.82;;
29044;SDS011;16133;49.486;12.176;2023-05-10T13:37:02;1.63;;;1.20;;
29044;SDS011;16133;49.486;12.176;2023-05-10T13:39:27;2.67;;;1.00;;
29044;SDS011;16133;49.486;12.176;2023-05-10T13:41:55;2.17;;;1.10;;
29044;SDS011;16133;49.486;12.176;2023-05-10T13:44:21;1.27;;;0.95;;
29044;SDS011;16133;49.486;12.176;2023-05-10T13:46:46;0.85;;;0.82;;
29044;SDS011;16133;49.486;12.176;2023-05-10T13:49:12;0.73;;;0.60;;
29044;SDS011;16133;49.486;12.176;2023-05-10T13:51:37;2.63;;;0.75;;
29044;SDS011;16133;49.486;12.176;2023-05-10T13:54:02;1.17;;;1.10;;
29044;SDS011;16133;49.486;12.176;2023-05-10T13:56:28;0.75;;;0.75;;
29044;SDS011;16133;49.486;12.176;2023-05-10T13:58:53;3.00;;;0.80;;
29044;SDS011;16133;49.486;12.176;2023-05-10T14:01:19;0.93;;;0.93;;
29044;SDS011;16133;49.486;12.176;2023-05-10T14:03:44;1.50;;;1.33;;
29044;SDS011;16133;49.486;12.176;2023-05-10T14:06:10;1.08;;;0.98;;
29044;SDS011;16133;49.486;12.176;2023-05-10T14:08:35;1.35;;;1.10;;
29044;SDS011;16133;49.486;12.176;2023-05-10T14:11:01;1.73;;;0.93;;
29044;SDS011;16133;49.486;12.176;2023-05-10T14:13:27;1.20;;;0.90;;
29044;SDS011;16133;49.486;12.176;2023-05-10T14:15:53;0.75;;;0.75;;
29044;SDS011;16133;49.486;12.176;2023-05-10T14:18:19;0.82;;;0.82;;
29044;SDS011;16133;49.486;12.176;2023-05-10T14:20:44;1.52;;;1.35;;
29044;SDS011;16133;49.486;12.176;2023-05-10T14:23:10;0.82;;;0.70;;
29044;SDS011;16133;49.486;12.176;2023-05-10T14:25:35;1.20;;;1.10;;
29044;SDS011;16133;49.486;12.176;2023-05-10T14:28:01;1.00;;;0.90;;
29044;SDS011;16133;49.486;12.176;2023-05-10T14:30:26;0.70;;;0.70;;
29044;SDS011;16133;49.486;12.176;2023-05-10T14:32:51;1.67;;;1.10;;
29044;SDS011;16133;49.486;12.176;2023-05-10T14:35:18;1.20;;;1.10;;
29044;SDS011;16133;49.486;12.176;2023-05-10T14:37:44;1.10;;;0.68;;
29044;SDS011;16133;49.486;12.176;2023-05-10T14:40:09;1.45;;;0.68;;
29044;SDS011;16133;49.486;12.176;2023-05-10T14:42:35;0.70;;;0.65;;
29044;SDS011;16133;49.486;12.176;2023-05-10T14:45:00;0.70;;;0.70;;
29044;SDS011;16133;49.486;12.176;2023-05-10T14:47:26;4.07;;;1.95;;
29044;SDS011;16133;49.486;12.176;2023-05-10T14:49:52;2.63;;;2.33;;
29044;SDS011;16133;49.486;12.176;2023-05-10T14:52:17;3.83;;;2.80;;
29044;SDS011;16133;49.486;12.176;2023-05-10T14:54:42;2.25;;;2.00;;
29044;SDS011;16133;49.486;12.176;2023-05-10T14:57:08;2.20;;;2.00;;
29044;SDS011;16133;49.486;12.176;2023-05-10T14:59:33;1.70;;;1.60;;
29044;SDS011;16133;49.486;12.176;2023-05-10T15:01:58;2.05;;;1.00;;
29044;SDS011;16133;49.486;12.176;2023-05-10T15:04:24;2.10;;;1.52;;